createdAt,value
2017-10-17T00:02:07.910Z,13.87
2017-10-17T00:04:34.200Z,13.80
2017-10-17T00:07:00.589Z,13.40
2017-10-17T00:09:26.977Z,13.60
2017-10-17T00:11:53.338Z,13.90
2017-10-17T00:14:19.702Z,12.67
2017-10-17T00:16:46.060Z,13.80
2017-10-17T00:19:12.394Z,12.03
2017-10-17T00:21:38.720Z,13.43
2017-10-17T00:24:05.089Z,11.77
2017-10-17T00:26:31.796Z,12.93
2017-10-17T00:28:58.163Z,12.87
2017-10-17T00:31:24.473Z,12.33
2017-10-17T00:33:50.754Z,12.57
2017-10-17T00:36:19.996Z,13.17
2017-10-17T00:38:50.142Z,12.83
2017-10-17T00:41:16.476Z,12.60
2017-10-17T00:43:43.521Z,12.50
2017-10-17T00:46:10.578Z,14.03
2017-10-17T00:48:36.933Z,12.70
2017-10-17T00:51:03.405Z,11.50
2017-10-17T00:53:29.737Z,12.70
2017-10-17T00:55:56.035Z,13.93
2017-10-17T00:58:24.102Z,14.03
2017-10-17T01:00:50.484Z,13.30
2017-10-17T01:03:17.068Z,12.67
2017-10-17T01:05:44.190Z,13.80
2017-10-17T01:08:11.244Z,13.77
2017-10-17T01:10:37.604Z,12.53
2017-10-17T01:13:03.966Z,13.30
2017-10-17T01:15:30.231Z,12.13
2017-10-17T01:17:57.307Z,14.47
2017-10-17T01:20:28.526Z,12.80
2017-10-17T01:22:54.875Z,14.20
2017-10-17T01:25:21.291Z,12.53
2017-10-17T01:27:52.168Z,12.87
2017-10-17T01:30:18.513Z,11.47
2017-10-17T01:32:44.896Z,13.37
2017-10-17T01:35:12.992Z,14.20
2017-10-17T01:37:39.424Z,13.23
2017-10-17T01:40:19.199Z,11.83
2017-10-17T01:42:45.504Z,13.63
2017-10-17T01:45:13.648Z,11.67
2017-10-17T01:47:40.682Z,11.77
2017-10-17T01:50:10.425Z,12.87
2017-10-17T01:52:36.746Z,12.77
2017-10-17T01:55:03.216Z,12.50
2017-10-17T01:57:35.183Z,12.90
2017-10-17T02:00:03.462Z,14.20
2017-10-17T02:02:29.805Z,13.50
2017-10-17T02:04:56.099Z,13.50
2017-10-17T02:07:22.445Z,13.93
2017-10-17T02:09:55.560Z,14.40
2017-10-17T02:12:21.867Z,16.50
2017-10-17T02:14:48.189Z,17.63
2017-10-17T02:17:14.572Z,17.90
2017-10-17T02:19:40.861Z,17.30
2017-10-17T02:22:17.141Z,18.03
2017-10-17T02:24:47.847Z,17.23
2017-10-17T02:27:14.734Z,17.10
2017-10-17T02:29:57.996Z,16.57
2017-10-17T02:32:24.345Z,15.97
2017-10-17T02:35:01.651Z,16.00
2017-10-17T02:37:27.965Z,16.53
2017-10-17T02:39:54.332Z,15.90
2017-10-17T02:42:20.664Z,16.90
2017-10-17T02:44:47.022Z,16.00
2017-10-17T02:47:13.313Z,14.63
2017-10-17T02:49:41.640Z,14.90
2017-10-17T02:52:28.645Z,16.57
2017-10-17T02:54:56.475Z,16.50
2017-10-17T02:57:23.504Z,15.03
2017-10-17T02:59:50.653Z,14.40
2017-10-17T03:02:30.813Z,16.50
2017-10-17T03:05:13.018Z,16.57
2017-10-17T03:07:39.334Z,16.30
2017-10-17T03:10:05.731Z,14.30
2017-10-17T03:12:32.197Z,14.80
2017-10-17T03:18:02.404Z,16.30
2017-10-17T03:20:28.684Z,15.47
2017-10-17T03:22:55.012Z,17.00
2017-10-17T03:25:21.390Z,18.10
2017-10-17T03:27:49.706Z,19.73
2017-10-17T03:30:16.074Z,18.07
2017-10-17T03:32:42.430Z,18.10
2017-10-17T03:35:13.619Z,18.37
2017-10-17T03:37:54.024Z,17.80
2017-10-17T03:43:37.634Z,18.30
2017-10-17T03:46:04.592Z,16.50
2017-10-17T03:48:30.933Z,19.13
2017-10-17T03:51:15.278Z,19.83
2017-10-17T03:53:47.447Z,19.73
2017-10-17T03:56:21.520Z,19.63
2017-10-17T03:58:48.617Z,18.73
2017-10-17T04:01:14.928Z,19.80
2017-10-17T04:06:59.505Z,18.10
2017-10-17T04:09:25.865Z,18.70
2017-10-17T04:11:52.217Z,18.63
2017-10-17T04:17:44.646Z,18.57
2017-10-17T04:20:24.593Z,19.13
2017-10-17T04:23:14.140Z,19.63
2017-10-17T04:28:47.143Z,18.40
2017-10-17T04:31:26.206Z,17.77
2017-10-17T04:34:19.805Z,17.43
2017-10-17T04:39:44.253Z,17.70
2017-10-17T04:42:23.893Z,16.40
2017-10-17T04:51:29.697Z,16.17
2017-10-17T04:54:25.860Z,16.93
2017-10-17T04:56:59.079Z,16.80
2017-10-17T05:02:57.373Z,16.73
2017-10-17T05:05:56.792Z,16.53
2017-10-17T05:08:47.813Z,17.90
2017-10-17T05:11:27.249Z,17.83
2017-10-17T05:14:06.458Z,20.77
2017-10-17T05:16:43.801Z,18.97
2017-10-17T05:25:29.780Z,17.07
2017-10-17T05:28:14.665Z,16.43
2017-10-17T05:31:00.246Z,18.67
2017-10-17T05:36:44.862Z,17.23
2017-10-17T05:39:11.964Z,17.30
2017-10-17T05:41:38.368Z,17.77
2017-10-17T05:44:13.839Z,18.80
2017-10-17T05:46:40.930Z,18.77
2017-10-17T05:49:15.954Z,19.20
2017-10-17T05:51:42.353Z,16.83
2017-10-17T05:54:08.682Z,20.10
2017-10-17T05:56:35.095Z,19.90
2017-10-17T05:59:01.505Z,20.10
2017-10-17T06:01:28.574Z,20.00
2017-10-17T06:03:54.906Z,19.50
2017-10-17T06:06:21.292Z,21.50
2017-10-17T06:08:47.627Z,21.40
2017-10-17T06:11:13.976Z,21.57
2017-10-17T06:13:41.058Z,22.40
2017-10-17T06:16:07.425Z,21.30
2017-10-17T06:18:33.767Z,22.33
2017-10-17T06:21:00.248Z,22.27
2017-10-17T06:23:26.735Z,22.27
2017-10-17T06:25:53.840Z,23.30
2017-10-17T06:28:20.235Z,20.30
2017-10-17T06:30:46.565Z,25.07
2017-10-17T06:33:12.910Z,23.63
2017-10-17T06:35:40.015Z,24.97
2017-10-17T06:38:06.355Z,24.87
2017-10-17T06:40:32.805Z,24.27
2017-10-17T06:42:59.083Z,24.40
2017-10-17T06:45:25.394Z,24.53
2017-10-17T06:47:51.722Z,25.07
2017-10-17T06:50:18.277Z,25.10
2017-10-17T06:52:44.597Z,24.53
2017-10-17T06:55:10.957Z,24.53
2017-10-17T06:57:37.371Z,26.00
2017-10-17T07:00:03.715Z,22.93
2017-10-17T07:02:30.111Z,23.13
2017-10-17T07:04:57.209Z,23.13
2017-10-17T07:07:23.561Z,25.17
2017-10-17T07:09:49.946Z,22.87
2017-10-17T07:12:16.279Z,22.13
2017-10-17T07:14:42.653Z,23.90
2017-10-17T07:17:09.026Z,24.03
2017-10-17T07:19:35.379Z,22.20
2017-10-17T07:22:01.754Z,21.33
2017-10-17T07:24:28.186Z,21.80
2017-10-17T07:26:54.520Z,21.87
2017-10-17T07:29:20.848Z,22.47
2017-10-17T07:31:47.301Z,22.50
2017-10-17T07:34:14.607Z,21.90
2017-10-17T07:36:41.062Z,21.30
2017-10-17T07:39:07.401Z,23.30
2017-10-17T07:41:33.763Z,20.50
2017-10-17T07:44:01.013Z,21.07
2017-10-17T07:46:27.445Z,21.00
2017-10-17T07:48:54.575Z,21.13
2017-10-17T07:51:21.033Z,20.60
2017-10-17T07:53:47.365Z,21.57
2017-10-17T07:56:14.585Z,21.53
2017-10-17T07:58:40.999Z,21.23
2017-10-17T08:01:07.355Z,19.00
2017-10-17T08:03:33.788Z,22.40
2017-10-17T08:06:00.120Z,19.80
2017-10-17T08:08:26.437Z,21.67
2017-10-17T08:10:52.722Z,19.00
2017-10-17T08:13:19.842Z,22.47
2017-10-17T08:15:46.204Z,19.33
2017-10-17T08:18:13.318Z,20.67
2017-10-17T08:20:39.664Z,19.83
2017-10-17T08:23:06.712Z,19.30
2017-10-17T08:25:33.911Z,20.47
2017-10-17T08:28:01.404Z,20.00
2017-10-17T08:30:27.812Z,18.90
2017-10-17T08:32:54.151Z,19.60
2017-10-17T08:35:20.534Z,20.57
2017-10-17T08:37:47.735Z,19.97
2017-10-17T08:40:14.193Z,19.70
2017-10-17T08:42:41.331Z,21.27
2017-10-17T08:45:07.735Z,19.83
2017-10-17T08:47:34.094Z,20.30
2017-10-17T08:50:00.599Z,19.73
2017-10-17T08:52:26.932Z,19.90
2017-10-17T08:54:53.354Z,18.33
2017-10-17T08:57:19.758Z,20.40
2017-10-17T08:59:46.882Z,21.57
2017-10-17T09:02:13.380Z,18.80
2017-10-17T09:04:39.744Z,20.33
2017-10-17T09:07:06.231Z,20.43
2017-10-17T09:09:32.546Z,19.50
2017-10-17T09:11:58.915Z,19.33
2017-10-17T09:14:25.260Z,18.20
2017-10-17T09:16:51.680Z,21.37
2017-10-17T09:19:18.120Z,21.30
2017-10-17T09:21:44.577Z,20.93
2017-10-17T09:24:10.942Z,20.03
2017-10-17T09:26:37.326Z,19.87
2017-10-17T09:29:04.604Z,19.20
2017-10-17T09:31:31.713Z,19.77
2017-10-17T09:33:58.056Z,21.07
2017-10-17T09:36:24.381Z,19.63
2017-10-17T09:38:50.725Z,21.57
2017-10-17T09:41:17.070Z,18.37
2017-10-17T09:43:43.392Z,19.10
2017-10-17T09:46:09.703Z,17.27
2017-10-17T09:48:36.061Z,20.10
2017-10-17T09:51:02.392Z,19.90
2017-10-17T09:53:28.698Z,19.30
2017-10-17T09:55:55.010Z,18.30
2017-10-17T09:58:21.428Z,18.47
2017-10-17T10:00:47.823Z,19.67
2017-10-17T10:03:14.148Z,20.37
2017-10-17T10:05:40.490Z,18.67
2017-10-17T10:08:06.801Z,18.80
2017-10-17T10:10:34.068Z,18.53
2017-10-17T10:13:00.368Z,17.83
2017-10-17T10:15:26.822Z,16.80
2017-10-17T10:17:53.178Z,18.00
2017-10-17T10:20:19.572Z,17.60
2017-10-17T10:22:46.034Z,18.03
2017-10-17T10:25:12.366Z,17.23
2017-10-17T10:27:38.736Z,16.53
2017-10-17T10:30:05.171Z,16.57
2017-10-17T10:32:31.630Z,17.23
2017-10-17T10:34:57.960Z,17.37
2017-10-17T10:37:24.402Z,16.00
2017-10-17T10:39:50.735Z,16.93
2017-10-17T10:42:17.198Z,16.63
2017-10-17T10:44:43.592Z,15.70
2017-10-17T10:47:09.901Z,16.50
2017-10-17T10:49:37.057Z,15.63
2017-10-17T10:52:03.441Z,17.00
2017-10-17T10:54:29.777Z,16.90
2017-10-17T10:56:56.147Z,15.30
2017-10-17T10:59:22.475Z,15.73
2017-10-17T11:01:49.571Z,15.20
2017-10-17T11:04:15.976Z,15.60
2017-10-17T11:06:42.319Z,15.10
2017-10-17T11:09:10.744Z,15.73
2017-10-17T11:11:37.055Z,13.03
2017-10-17T11:14:03.672Z,15.20
2017-10-17T11:16:30.001Z,13.77
2017-10-17T11:18:56.345Z,12.80
2017-10-17T11:21:22.676Z,13.90
2017-10-17T11:23:48.994Z,12.73
2017-10-17T11:26:15.398Z,12.67
2017-10-17T11:28:41.727Z,12.37
2017-10-17T11:31:08.806Z,11.60
2017-10-17T11:33:35.225Z,11.70
2017-10-17T11:36:01.636Z,11.63
2017-10-17T11:38:29.540Z,10.77
2017-10-17T11:41:14.566Z,10.47
2017-10-17T11:43:49.777Z,10.70
2017-10-17T11:46:16.127Z,9.80
2017-10-17T11:48:42.498Z,8.80
2017-10-17T11:51:08.917Z,10.33
2017-10-17T11:53:35.242Z,9.37
2017-10-17T11:56:01.578Z,9.03
2017-10-17T11:58:27.938Z,9.10
2017-10-17T12:00:54.244Z,8.90
2017-10-17T12:03:21.318Z,9.73
2017-10-17T12:05:47.650Z,8.70
2017-10-17T12:08:14.044Z,9.00
2017-10-17T12:10:41.165Z,8.63
2017-10-17T12:13:07.516Z,9.33
2017-10-17T12:15:33.905Z,10.30
2017-10-17T12:18:00.297Z,9.07
2017-10-17T12:20:27.325Z,9.20
2017-10-17T12:22:53.732Z,9.80
2017-10-17T12:25:20.299Z,8.10
2017-10-17T12:27:46.791Z,8.60
2017-10-17T12:30:13.186Z,8.67
2017-10-17T12:32:39.590Z,8.50
2017-10-17T12:35:05.917Z,9.70
2017-10-17T12:37:32.301Z,9.27
2017-10-17T12:39:58.673Z,8.27
2017-10-17T12:42:25.076Z,8.57
2017-10-17T12:44:51.419Z,8.43
2017-10-17T12:47:18.680Z,9.27
2017-10-17T12:49:45.078Z,7.97
2017-10-17T12:52:11.402Z,8.23
2017-10-17T12:54:37.783Z,7.60
2017-10-17T12:57:04.147Z,7.23
2017-10-17T12:59:30.506Z,8.53
2017-10-17T13:01:56.860Z,8.30
2017-10-17T13:04:23.310Z,7.70
2017-10-17T13:06:49.730Z,8.30
2017-10-17T13:09:16.093Z,9.10
2017-10-17T13:11:42.462Z,8.70
2017-10-17T13:14:08.909Z,8.70
2017-10-17T13:16:35.286Z,9.30
2017-10-17T13:19:01.603Z,9.03
2017-10-17T13:21:28.700Z,9.30
2017-10-17T13:23:55.839Z,9.87
2017-10-17T13:26:22.902Z,9.93
2017-10-17T13:28:49.206Z,8.63
2017-10-17T13:31:15.535Z,8.63
2017-10-17T13:33:41.866Z,9.40
2017-10-17T13:36:08.197Z,7.90
2017-10-17T13:38:34.533Z,10.33
2017-10-17T13:41:01.737Z,8.80
2017-10-17T13:43:28.099Z,9.93
2017-10-17T13:45:54.415Z,9.70
2017-10-17T13:48:20.927Z,11.40
2017-10-17T13:50:47.273Z,9.70
2017-10-17T13:53:13.689Z,9.60
2017-10-17T13:55:40.246Z,9.33
2017-10-17T13:58:06.553Z,12.43
2017-10-17T14:00:32.967Z,11.37
2017-10-17T14:02:59.334Z,12.10
2017-10-17T14:05:25.673Z,10.97
2017-10-17T14:07:52.077Z,12.00
2017-10-17T14:10:18.542Z,12.03
2017-10-17T14:12:44.877Z,10.60
2017-10-17T14:15:11.225Z,11.47
2017-10-17T14:17:37.583Z,11.80
2017-10-17T14:20:04.654Z,10.37
2017-10-17T14:22:31.083Z,11.53
2017-10-17T14:24:57.566Z,15.00
2017-10-17T14:27:23.914Z,13.67
2017-10-17T14:29:50.285Z,14.50
2017-10-17T14:32:16.673Z,13.00
2017-10-17T14:34:42.994Z,13.97
2017-10-17T14:37:09.337Z,15.20
2017-10-17T14:39:35.842Z,14.40
2017-10-17T14:42:02.173Z,14.37
2017-10-17T14:44:28.541Z,14.63
2017-10-17T14:46:54.839Z,13.93
2017-10-17T14:49:21.454Z,13.83
2017-10-17T14:51:47.787Z,13.13
2017-10-17T14:54:14.115Z,14.63
2017-10-17T14:56:40.499Z,13.50
2017-10-17T14:59:06.837Z,14.20
2017-10-17T15:01:33.209Z,14.90
2017-10-17T15:03:59.757Z,15.60
2017-10-17T15:06:26.161Z,16.27
2017-10-17T15:08:53.333Z,16.90
2017-10-17T15:11:20.433Z,17.73
2017-10-17T15:13:46.765Z,16.83
2017-10-17T15:16:13.139Z,15.20
2017-10-17T15:18:39.520Z,16.93
2017-10-17T15:21:05.846Z,17.07
2017-10-17T15:23:32.203Z,17.83
2017-10-17T15:25:58.779Z,16.50
2017-10-17T15:28:25.130Z,17.30
2017-10-17T15:30:51.602Z,16.10
2017-10-17T15:33:18.014Z,15.60
2017-10-17T15:35:44.361Z,17.57
2017-10-17T15:38:10.796Z,16.53
2017-10-17T15:40:37.160Z,18.13
2017-10-17T15:43:03.469Z,17.40
2017-10-17T15:45:29.922Z,17.80
2017-10-17T15:47:56.434Z,16.13
2017-10-17T15:50:22.758Z,18.13
2017-10-17T15:52:49.127Z,17.67
2017-10-17T15:55:15.534Z,17.80
2017-10-17T15:57:41.951Z,17.90
2017-10-17T16:00:15.414Z,16.63
2017-10-17T16:02:41.921Z,16.97
2017-10-17T16:05:08.297Z,17.83
2017-10-17T16:07:34.651Z,20.33
2017-10-17T16:10:01.078Z,18.77
2017-10-17T16:12:27.442Z,19.07
2017-10-17T16:14:54.176Z,19.40
2017-10-17T16:17:21.505Z,24.60
2017-10-17T16:19:47.902Z,22.87
2017-10-17T16:22:14.506Z,25.50
2017-10-17T16:24:41.058Z,27.33
2017-10-17T16:27:07.489Z,24.97
2017-10-17T16:29:33.885Z,24.63
2017-10-17T16:32:00.220Z,21.50
2017-10-17T16:34:26.556Z,24.30
2017-10-17T16:36:52.941Z,28.00
2017-10-17T16:39:19.302Z,26.33
2017-10-17T16:41:45.699Z,27.97
2017-10-17T16:44:12.091Z,25.70
2017-10-17T16:46:39.346Z,24.20
2017-10-17T16:49:05.815Z,27.20
2017-10-17T16:51:32.320Z,26.03
2017-10-17T16:53:59.410Z,24.23
2017-10-17T16:56:25.758Z,22.60
2017-10-17T16:58:52.117Z,21.30
2017-10-17T17:01:18.557Z,23.40
2017-10-17T17:03:44.934Z,24.50
2017-10-17T17:06:11.272Z,24.47
2017-10-17T17:08:37.546Z,24.20
2017-10-17T17:11:03.914Z,23.40
2017-10-17T17:13:30.410Z,23.70
2017-10-17T17:15:56.789Z,24.03
2017-10-17T17:18:23.099Z,22.73
2017-10-17T17:20:50.262Z,22.00
2017-10-17T17:23:16.675Z,22.20
2017-10-17T17:25:43.791Z,23.60
2017-10-17T17:28:10.174Z,22.50
2017-10-17T17:30:36.519Z,23.80
2017-10-17T17:33:02.849Z,24.37
2017-10-17T17:35:29.161Z,25.10
2017-10-17T17:37:56.231Z,22.07
2017-10-17T17:40:22.571Z,23.07
2017-10-17T17:42:48.879Z,22.53
2017-10-17T17:45:15.523Z,20.33
2017-10-17T17:47:42.771Z,20.63
2017-10-17T17:50:09.140Z,19.83
2017-10-17T17:52:35.606Z,21.13
2017-10-17T17:55:02.153Z,22.23
2017-10-17T17:57:28.648Z,23.63
2017-10-17T17:59:55.085Z,21.10
2017-10-17T18:02:22.158Z,21.87
2017-10-17T18:04:48.580Z,21.73
2017-10-17T18:07:15.001Z,22.20
2017-10-17T18:09:41.436Z,22.60
2017-10-17T18:12:07.926Z,21.83
2017-10-17T18:14:34.322Z,21.20
2017-10-17T18:17:00.917Z,22.90
2017-10-17T18:19:27.257Z,22.30
2017-10-17T18:21:53.665Z,20.83
2017-10-17T18:26:53.450Z,22.27
2017-10-17T18:29:20.806Z,23.17
2017-10-17T18:31:47.290Z,22.43
2017-10-17T18:34:13.802Z,21.87
2017-10-17T18:36:40.936Z,23.10
2017-10-17T18:39:07.317Z,21.03
2017-10-17T18:41:33.744Z,23.63
2017-10-17T18:44:01.108Z,21.00
2017-10-17T18:46:27.487Z,18.93
2017-10-17T18:48:53.865Z,20.40
2017-10-17T18:51:20.282Z,20.90
2017-10-17T18:53:46.821Z,18.57
2017-10-17T18:56:13.354Z,20.90
2017-10-17T18:58:39.792Z,22.63
2017-10-17T19:01:06.329Z,21.67
2017-10-17T19:03:32.804Z,23.90
2017-10-17T19:05:59.532Z,21.00
2017-10-17T19:08:25.978Z,22.47
2017-10-17T19:10:52.446Z,21.50
2017-10-17T19:13:18.854Z,21.60
2017-10-17T19:15:45.215Z,21.00
2017-10-17T19:18:11.670Z,20.47
2017-10-17T19:20:38.192Z,22.50
2017-10-17T19:23:05.558Z,21.10
2017-10-17T19:25:33.036Z,20.00
2017-10-17T19:27:59.453Z,21.93
2017-10-17T19:30:25.884Z,22.77
2017-10-17T19:32:52.273Z,19.93
2017-10-17T19:35:18.696Z,22.70
2017-10-17T19:37:45.211Z,21.67
2017-10-17T19:40:11.995Z,23.07
2017-10-17T19:42:38.381Z,22.97
2017-10-17T19:45:04.918Z,22.30
2017-10-17T19:47:31.397Z,21.97
2017-10-17T19:49:57.847Z,23.73
2017-10-17T19:52:24.995Z,24.40
2017-10-17T19:54:52.270Z,20.83
2017-10-17T19:57:19.747Z,22.87
2017-10-17T19:59:46.141Z,26.27
2017-10-17T20:02:13.368Z,24.17
2017-10-17T20:04:39.744Z,24.73
2017-10-17T20:07:06.874Z,24.33
2017-10-17T20:09:34.102Z,24.47
2017-10-17T20:12:00.547Z,23.23
2017-10-17T20:14:27.164Z,23.37
2017-10-17T20:16:53.557Z,23.57
2017-10-17T20:19:19.967Z,24.13
2017-10-17T20:21:47.204Z,25.87
2017-10-17T20:24:13.635Z,23.50
2017-10-17T20:26:40.165Z,23.27
2017-10-17T20:29:06.750Z,25.47
2017-10-17T20:31:33.263Z,23.70
2017-10-17T20:34:00.399Z,24.00
2017-10-17T20:36:26.818Z,24.53
2017-10-17T20:38:53.391Z,24.17
2017-10-17T20:41:20.461Z,26.80
2017-10-17T20:43:46.788Z,25.27
2017-10-17T20:46:13.343Z,26.63
2017-10-17T20:48:39.730Z,25.90
2017-10-17T20:51:06.048Z,25.30
2017-10-17T20:53:32.490Z,23.80
2017-10-17T20:55:58.793Z,24.17
2017-10-17T20:58:25.114Z,24.57
2017-10-17T21:00:52.452Z,26.40
2017-10-17T21:03:18.835Z,24.30
2017-10-17T21:05:45.250Z,23.87
2017-10-17T21:08:11.721Z,25.47
2017-10-17T21:10:38.809Z,24.70
2017-10-17T21:13:05.227Z,22.83
2017-10-17T21:15:31.644Z,24.50
2017-10-17T21:17:58.768Z,23.40
2017-10-17T21:20:25.901Z,23.80
2017-10-17T21:22:53.006Z,24.13
2017-10-17T21:25:19.400Z,21.93
2017-10-17T21:27:46.761Z,21.67
2017-10-17T21:30:13.348Z,19.20
2017-10-17T21:32:39.699Z,19.70
2017-10-17T21:35:06.093Z,20.83
2017-10-17T21:37:32.525Z,19.23
2017-10-17T21:39:58.896Z,20.83
2017-10-17T21:42:25.313Z,19.57
2017-10-17T21:44:51.788Z,16.50
2017-10-17T21:47:18.270Z,18.20
2017-10-17T21:49:44.714Z,17.63
2017-10-17T21:52:11.232Z,17.70
2017-10-17T21:54:37.603Z,16.60
2017-10-17T21:57:04.069Z,18.60
2017-10-17T21:59:31.208Z,18.33
2017-10-17T22:01:57.643Z,19.87
2017-10-17T22:04:24.034Z,21.53
2017-10-17T22:06:50.394Z,20.70
2017-10-17T22:09:16.890Z,22.60
2017-10-17T22:11:43.253Z,24.00
2017-10-17T22:14:09.680Z,20.80
2017-10-17T22:16:36.061Z,22.80
2017-10-17T22:19:03.217Z,23.70
2017-10-17T22:21:30.341Z,24.70
2017-10-17T22:23:56.733Z,25.33
2017-10-17T22:26:23.103Z,25.67
2017-10-17T22:28:50.286Z,24.33
2017-10-17T22:31:16.701Z,23.80
2017-10-17T22:33:43.068Z,24.97
2017-10-17T22:36:09.404Z,25.40
2017-10-17T22:38:35.781Z,24.80
2017-10-17T22:41:02.257Z,25.40
2017-10-17T22:43:28.649Z,22.63
2017-10-17T22:45:55.032Z,22.17
2017-10-17T22:48:21.490Z,22.67
2017-10-17T22:50:47.923Z,24.83
2017-10-17T22:53:14.308Z,28.53
2017-10-17T22:55:40.660Z,29.67
2017-10-17T22:58:07.047Z,27.77
2017-10-17T23:00:33.422Z,27.50
2017-10-17T23:02:59.933Z,26.57
2017-10-17T23:05:27.017Z,25.93
2017-10-17T23:07:53.387Z,24.60
2017-10-17T23:10:19.763Z,24.43
2017-10-17T23:12:46.208Z,24.00
2017-10-17T23:15:12.581Z,22.93
2017-10-17T23:17:57.713Z,22.77
2017-10-17T23:20:37.451Z,23.47
2017-10-17T23:23:03.856Z,23.53
2017-10-17T23:25:31.007Z,22.63
2017-10-17T23:27:58.080Z,20.83
2017-10-17T23:30:24.503Z,23.70
2017-10-17T23:32:52.224Z,25.37
2017-10-17T23:35:18.742Z,24.97
2017-10-17T23:37:45.055Z,23.23
2017-10-17T23:40:12.277Z,24.90
2017-10-17T23:42:39.430Z,26.07
2017-10-17T23:45:06.558Z,24.73
2017-10-17T23:47:32.932Z,26.37
2017-10-17T23:49:59.297Z,25.30
2017-10-17T23:52:25.699Z,30.30
2017-10-17T23:54:52.095Z,25.07
2017-10-17T23:57:19.173Z,24.33
2017-10-17T23:59:45.555Z,24.10
